createdAt,value
2019-05-09T00:02:13.977Z,60.25
2019-05-09T00:04:48.351Z,67.12
2019-05-09T00:07:23.283Z,44.55
2019-05-09T00:09:58.928Z,45.20
2019-05-09T00:12:33.570Z,46.98
2019-05-09T00:15:08.734Z,51.92
2019-05-09T00:17:44.217Z,39.03
2019-05-09T00:20:25.685Z,68.05
2019-05-09T00:22:59.983Z,54.58
2019-05-09T00:25:34.319Z,106.15
2019-05-09T00:28:09.070Z,97.22
2019-05-09T00:30:56.377Z,56.33
2019-05-09T00:33:34.340Z,46.53
2019-05-09T00:36:07.881Z,51.20
2019-05-09T00:38:48.044Z,41.48
2019-05-09T00:41:23.912Z,52.88
2019-05-09T00:43:59.434Z,63.33
2019-05-09T00:46:36.523Z,72.92
2019-05-09T00:49:13.975Z,90.30
2019-05-09T00:51:48.879Z,95.17
2019-05-09T00:54:24.031Z,85.80
2019-05-09T00:56:58.459Z,86.30
2019-05-09T00:59:33.764Z,98.62
2019-05-09T01:02:08.125Z,80.15
2019-05-09T01:04:43.778Z,53.02
2019-05-09T01:07:18.064Z,43.63
2019-05-09T01:09:54.225Z,51.80
2019-05-09T01:12:33.996Z,48.75
2019-05-09T01:15:09.385Z,43.70
2019-05-09T01:17:44.169Z,58.78
2019-05-09T01:20:19.922Z,80.32
2019-05-09T01:22:55.005Z,71.05
2019-05-09T01:25:33.345Z,80.72
2019-05-09T01:28:07.004Z,52.80
2019-05-09T01:30:43.869Z,68.35
2019-05-09T01:33:24.048Z,63.08
2019-05-09T01:35:58.274Z,75.32
2019-05-09T01:38:33.947Z,67.53
2019-05-09T01:41:22.659Z,64.77
2019-05-09T01:43:44.429Z,69.25
2019-05-09T01:46:18.795Z,79.60
2019-05-09T01:48:53.970Z,100.62
2019-05-09T01:51:29.440Z,91.12
2019-05-09T01:54:04.114Z,90.80
2019-05-09T01:56:39.067Z,86.72
2019-05-09T01:59:14.806Z,90.28
2019-05-09T02:01:50.018Z,78.35
2019-05-09T02:04:25.980Z,73.78
2019-05-09T02:07:03.814Z,72.67
2019-05-09T02:09:37.325Z,87.67
2019-05-09T02:12:13.952Z,107.32
2019-05-09T02:15:00.460Z,102.47
2019-05-09T02:17:36.388Z,123.50
2019-05-09T02:20:13.504Z,118.97
2019-05-09T02:22:48.061Z,149.32
2019-05-09T02:25:24.211Z,155.48
2019-05-09T02:27:59.457Z,150.27
2019-05-09T02:30:36.099Z,125.47
2019-05-09T02:33:10.364Z,118.45
2019-05-09T02:35:55.848Z,102.07
2019-05-09T02:38:20.427Z,100.95
2019-05-09T02:40:54.790Z,100.78
2019-05-09T02:43:29.303Z,97.10
2019-05-09T02:46:04.851Z,88.55
2019-05-09T02:48:39.251Z,82.85
2019-05-09T02:51:13.581Z,81.70
2019-05-09T02:53:53.819Z,78.60
2019-05-09T02:56:29.403Z,79.35
2019-05-09T02:59:14.868Z,80.60
2019-05-09T03:01:59.765Z,74.32
2019-05-09T03:04:34.533Z,84.75
2019-05-09T03:07:09.736Z,70.72
2019-05-09T03:09:44.347Z,59.73
2019-05-09T03:12:31.161Z,57.95
2019-05-09T03:14:54.330Z,47.85
2019-05-09T03:17:29.671Z,45.05
2019-05-09T03:20:05.781Z,53.15
2019-05-09T03:22:41.617Z,54.98
2019-05-09T03:25:18.911Z,44.63
2019-05-09T03:28:09.814Z,47.75
2019-05-09T03:30:50.768Z,54.08
2019-05-09T03:33:28.853Z,51.35
2019-05-09T03:36:01.062Z,58.35
2019-05-09T03:38:37.618Z,55.20
2019-05-09T03:41:12.485Z,74.87
2019-05-09T03:43:48.299Z,51.37
2019-05-09T03:46:28.045Z,45.17
2019-05-09T03:49:07.560Z,68.65
2019-05-09T03:51:48.091Z,61.45
2019-05-09T03:54:25.512Z,69.72
2019-05-09T03:57:13.036Z,47.40
2019-05-09T03:59:48.141Z,55.48
2019-05-09T04:02:22.622Z,47.25
2019-05-09T04:05:10.648Z,58.70
2019-05-09T04:07:45.074Z,35.75
2019-05-09T04:10:20.476Z,35.30
2019-05-09T04:12:57.181Z,48.25
2019-05-09T04:15:30.839Z,62.90
2019-05-09T04:18:05.300Z,48.05
2019-05-09T04:20:39.495Z,67.45
2019-05-09T04:23:13.857Z,63.28
2019-05-09T04:25:49.871Z,73.85
2019-05-09T04:28:27.269Z,73.00
2019-05-09T04:31:24.346Z,60.15
2019-05-09T04:33:59.368Z,47.75
2019-05-09T04:36:43.624Z,53.15
2019-05-09T04:39:23.733Z,49.90
2019-05-09T04:42:03.588Z,50.15
2019-05-09T04:44:33.637Z,67.10
2019-05-09T04:47:08.787Z,51.10
2019-05-09T04:49:45.157Z,34.20
2019-05-09T04:52:22.348Z,53.65
2019-05-09T04:54:57.605Z,64.37
2019-05-09T04:57:35.584Z,47.67
2019-05-09T05:00:15.051Z,40.67
2019-05-09T05:02:52.341Z,36.70
2019-05-09T05:05:29.025Z,43.33
2019-05-09T05:08:03.953Z,39.18
2019-05-09T05:10:39.310Z,46.63
2019-05-09T05:13:25.684Z,59.38
2019-05-09T05:15:52.217Z,42.10
2019-05-09T05:18:28.473Z,84.40
2019-05-09T05:21:04.023Z,43.15
2019-05-09T05:23:44.116Z,37.78
2019-05-09T05:26:19.522Z,37.67
2019-05-09T05:28:58.475Z,38.70
2019-05-09T05:31:32.663Z,43.05
2019-05-09T05:34:08.478Z,42.10
2019-05-09T05:36:44.901Z,39.95
2019-05-09T05:39:20.018Z,38.67
2019-05-09T05:41:57.658Z,37.30
2019-05-09T05:44:32.693Z,40.43
2019-05-09T05:47:09.652Z,40.38
2019-05-09T05:49:45.572Z,36.68
2019-05-09T05:52:20.055Z,37.13
2019-05-09T05:54:58.051Z,37.15
2019-05-09T05:57:33.587Z,37.28
2019-05-09T06:00:10.111Z,44.23
2019-05-09T06:02:47.903Z,42.83
2019-05-09T06:05:22.506Z,36.23
2019-05-09T06:07:57.857Z,44.83
2019-05-09T06:10:33.014Z,43.48
2019-05-09T06:13:08.083Z,41.25
2019-05-09T06:15:42.562Z,54.85
2019-05-09T06:18:18.400Z,62.88
2019-05-09T06:20:52.928Z,43.10
2019-05-09T06:23:30.594Z,41.48
2019-05-09T06:26:09.163Z,46.10
2019-05-09T06:28:40.944Z,49.40
2019-05-09T06:31:17.884Z,46.90
2019-05-09T06:33:53.663Z,46.80
2019-05-09T06:36:28.462Z,40.52
2019-05-09T06:39:03.237Z,36.38
2019-05-09T06:41:37.983Z,41.92
2019-05-09T06:44:23.196Z,39.05
2019-05-09T06:47:18.562Z,39.60
2019-05-09T06:49:54.656Z,38.13
2019-05-09T06:52:31.313Z,39.15
2019-05-09T06:55:08.449Z,40.75
2019-05-09T06:57:43.165Z,37.73
2019-05-09T07:00:24.208Z,48.13
2019-05-09T07:03:00.864Z,49.03
2019-05-09T07:05:38.720Z,40.38
2019-05-09T07:08:18.324Z,39.20
2019-05-09T07:11:07.438Z,33.38
2019-05-09T07:13:41.161Z,37.05
2019-05-09T07:16:18.661Z,37.08
2019-05-09T07:18:53.026Z,34.43
2019-05-09T07:21:31.591Z,32.25
2019-05-09T07:24:07.999Z,34.27
2019-05-09T07:26:42.607Z,33.38
2019-05-09T07:29:17.997Z,31.25
2019-05-09T07:32:10.259Z,37.42
2019-05-09T07:34:59.249Z,43.17
2019-05-09T07:37:33.644Z,40.08
2019-05-09T07:40:09.241Z,39.03
2019-05-09T07:42:43.861Z,38.92
2019-05-09T07:45:18.407Z,38.33
2019-05-09T07:47:54.425Z,35.98
2019-05-09T07:50:29.762Z,33.33
2019-05-09T07:53:04.290Z,39.73
2019-05-09T07:55:38.759Z,35.95
2019-05-09T07:58:14.394Z,31.70
2019-05-09T08:00:49.273Z,36.73
2019-05-09T08:03:23.792Z,30.85
2019-05-09T08:05:59.789Z,42.23
2019-05-09T08:08:34.462Z,40.83
2019-05-09T08:11:09.162Z,38.70
2019-05-09T08:13:44.670Z,28.65
2019-05-09T08:16:21.843Z,32.58
2019-05-09T08:18:57.886Z,33.50
2019-05-09T08:21:32.636Z,35.65
2019-05-09T08:24:08.169Z,34.18
2019-05-09T08:26:42.733Z,36.05
2019-05-09T08:29:19.837Z,29.48
2019-05-09T08:31:53.287Z,37.15
2019-05-09T08:34:34.009Z,40.05
2019-05-09T08:37:08.722Z,42.62
2019-05-09T08:39:44.482Z,34.88
2019-05-09T08:42:20.007Z,30.02
2019-05-09T08:44:54.856Z,30.12
2019-05-09T08:47:30.021Z,32.53
2019-05-09T08:50:08.445Z,37.55
2019-05-09T08:52:43.961Z,29.42
2019-05-09T08:55:18.436Z,35.75
2019-05-09T08:57:53.164Z,40.30
2019-05-09T09:00:29.265Z,39.15
2019-05-09T09:03:04.078Z,40.05
2019-05-09T09:05:38.956Z,31.50
2019-05-09T09:08:13.552Z,34.15
2019-05-09T09:10:50.423Z,24.02
2019-05-09T09:13:28.369Z,27.60
2019-05-09T09:16:18.159Z,24.10
2019-05-09T09:18:42.144Z,41.60
2019-05-09T09:21:18.373Z,153.90
2019-05-09T09:23:55.285Z,196.50
2019-05-09T09:26:38.055Z,107.90
2019-05-09T09:29:13.959Z,66.97
2019-05-09T09:31:50.388Z,113.75
2019-05-09T09:34:30.398Z,117.45
2019-05-09T09:37:10.966Z,66.10
2019-05-09T09:39:44.894Z,51.02
2019-05-09T09:42:20.252Z,46.28
2019-05-09T09:44:54.762Z,48.50
2019-05-09T09:47:30.580Z,61.33
2019-05-09T09:50:05.130Z,103.87
2019-05-09T09:52:39.519Z,253.92
2019-05-09T09:55:14.079Z,208.53
2019-05-09T09:57:48.623Z,146.32
2019-05-09T10:00:38.225Z,115.52
2019-05-09T10:03:13.560Z,89.45
2019-05-09T10:06:00.811Z,100.80
2019-05-09T10:08:39.636Z,82.55
2019-05-09T10:11:17.742Z,67.78
2019-05-09T10:13:52.068Z,65.62
2019-05-09T10:16:39.024Z,57.83
2019-05-09T10:19:20.778Z,61.85
2019-05-09T10:21:57.785Z,83.75
2019-05-09T10:24:32.386Z,76.30
2019-05-09T10:27:10.747Z,77.35
2019-05-09T10:29:47.831Z,61.48
2019-05-09T10:32:25.203Z,66.53
2019-05-09T10:35:01.742Z,60.90
2019-05-09T10:37:39.327Z,65.17
2019-05-09T10:40:25.102Z,71.35
2019-05-09T10:43:08.147Z,66.72
2019-05-09T10:46:00.708Z,90.80
2019-05-09T10:48:35.215Z,72.55
2019-05-09T10:51:10.654Z,63.15
2019-05-09T10:53:47.962Z,57.80
2019-05-09T10:56:21.480Z,64.40
2019-05-09T10:58:58.242Z,59.33
2019-05-09T11:01:33.477Z,49.50
2019-05-09T11:04:08.450Z,49.63
2019-05-09T11:06:43.161Z,49.35
2019-05-09T11:09:18.257Z,47.90
2019-05-09T11:11:53.062Z,44.13
2019-05-09T11:14:33.510Z,45.92
2019-05-09T11:17:11.049Z,48.95
2019-05-09T11:19:42.500Z,50.05
2019-05-09T11:22:18.287Z,45.28
2019-05-09T11:24:52.443Z,42.00
2019-05-09T11:27:28.991Z,45.28
2019-05-09T11:30:02.720Z,50.33
2019-05-09T11:32:38.589Z,51.50
2019-05-09T11:35:13.197Z,50.67
2019-05-09T11:37:48.114Z,53.08
2019-05-09T11:40:23.172Z,53.35
2019-05-09T11:42:58.702Z,51.28
2019-05-09T11:45:33.502Z,42.93
2019-05-09T11:48:09.374Z,51.75
2019-05-09T11:50:43.679Z,62.03
2019-05-09T11:53:18.193Z,98.40
2019-05-09T11:55:57.590Z,68.37
2019-05-09T11:58:32.808Z,64.50
2019-05-09T12:01:09.997Z,62.85
2019-05-09T12:03:44.673Z,58.42
2019-05-09T12:06:20.283Z,63.23
2019-05-09T12:08:55.193Z,58.55
2019-05-09T12:11:29.961Z,61.20
2019-05-09T12:14:04.431Z,81.85
2019-05-09T12:16:44.095Z,80.85
2019-05-09T12:19:20.298Z,78.42
2019-05-09T12:21:55.152Z,64.27
2019-05-09T12:24:31.629Z,224.15
2019-05-09T12:27:08.555Z,70.28
2019-05-09T12:29:42.495Z,56.73
2019-05-09T12:32:18.636Z,60.88
2019-05-09T12:34:53.647Z,69.62
2019-05-09T12:37:32.260Z,64.03
2019-05-09T12:40:12.704Z,65.35
2019-05-09T12:42:50.362Z,68.85
2019-05-09T12:45:28.375Z,61.58
2019-05-09T12:48:13.896Z,64.32
2019-05-09T12:50:41.222Z,67.60
2019-05-09T12:53:18.736Z,59.42
2019-05-09T12:55:53.886Z,48.87
2019-05-09T12:58:31.281Z,54.65
2019-05-09T13:01:07.505Z,50.52
2019-05-09T13:03:41.656Z,55.40
2019-05-09T13:06:19.503Z,63.58
2019-05-09T13:08:52.367Z,57.85
2019-05-09T13:11:27.913Z,62.33
2019-05-09T13:14:10.121Z,58.87
2019-05-09T13:16:49.621Z,67.05
2019-05-09T13:19:24.168Z,65.52
2019-05-09T13:22:03.160Z,60.20
2019-05-09T13:24:44.838Z,53.35
2019-05-09T13:27:22.734Z,46.92
2019-05-09T13:30:15.653Z,45.40
2019-05-09T13:33:00.059Z,44.05
2019-05-09T13:35:43.849Z,43.52
2019-05-09T13:38:23.589Z,44.08
2019-05-09T13:41:01.895Z,44.90
2019-05-09T13:43:47.472Z,42.15
2019-05-09T13:46:21.537Z,40.50
2019-05-09T13:49:10.929Z,42.95
2019-05-09T13:52:00.271Z,44.85
2019-05-09T13:54:30.806Z,42.62
2019-05-09T13:57:12.739Z,35.88
2019-05-09T13:59:54.867Z,38.25
2019-05-09T14:02:35.406Z,45.52
2019-05-09T14:05:15.279Z,46.95
2019-05-09T14:07:54.358Z,41.42
2019-05-09T14:10:29.029Z,42.50
2019-05-09T14:13:09.994Z,44.53
2019-05-09T14:15:43.806Z,45.03
2019-05-09T14:18:18.914Z,43.63
2019-05-09T14:20:57.435Z,48.87
2019-05-09T14:23:35.458Z,58.63
2019-05-09T14:29:12.081Z,70.55
2019-05-09T14:31:46.261Z,84.83
2019-05-09T14:34:21.897Z,87.17
2019-05-09T14:36:59.368Z,80.83
2019-05-09T14:39:53.641Z,71.25
2019-05-09T14:42:13.562Z,82.08
2019-05-09T14:44:55.610Z,84.75
2019-05-09T14:47:32.352Z,76.80
2019-05-09T14:50:11.602Z,70.52
2019-05-09T14:52:48.882Z,59.25
2019-05-09T14:55:28.536Z,51.08
2019-05-09T14:58:07.819Z,61.10
2019-05-09T15:00:48.264Z,53.23
2019-05-09T15:03:30.120Z,54.93
2019-05-09T15:06:10.905Z,55.92
2019-05-09T15:08:51.306Z,53.52
2019-05-09T15:11:28.921Z,55.45
2019-05-09T15:14:08.435Z,52.80
2019-05-09T15:16:51.079Z,46.15
2019-05-09T15:19:32.924Z,48.38
2019-05-09T15:25:09.113Z,55.40
2019-05-09T15:27:48.239Z,67.82
2019-05-09T15:30:22.911Z,73.92
2019-05-09T15:32:59.108Z,73.12
2019-05-09T15:35:48.586Z,76.72
2019-05-09T15:38:29.211Z,72.65
2019-05-09T15:41:12.106Z,86.42
2019-05-09T15:43:51.667Z,78.35
2019-05-09T15:46:51.324Z,73.45
2019-05-09T15:49:28.596Z,69.85
2019-05-09T15:52:04.031Z,77.12
2019-05-09T15:54:43.084Z,79.75
2019-05-09T15:57:21.989Z,74.10
2019-05-09T15:59:58.773Z,65.35
2019-05-09T16:02:39.126Z,65.60
2019-05-09T16:05:17.828Z,49.53
2019-05-09T16:07:53.323Z,50.25
2019-05-09T16:10:29.766Z,54.70
2019-05-09T16:13:11.136Z,52.20
2019-05-09T16:15:48.695Z,48.35
2019-05-09T16:18:43.318Z,56.42
2019-05-09T16:23:59.082Z,51.23
2019-05-09T16:26:45.156Z,46.65
2019-05-09T16:29:25.032Z,45.38
2019-05-09T16:32:08.816Z,47.53
2019-05-09T16:34:47.066Z,47.53
2019-05-09T16:37:21.968Z,43.75
2019-05-09T16:39:59.397Z,44.10
2019-05-09T16:42:39.048Z,41.37
2019-05-09T16:45:19.279Z,42.25
2019-05-09T16:47:54.798Z,47.30
2019-05-09T16:50:31.399Z,43.30
2019-05-09T16:53:09.055Z,43.58
2019-05-09T16:55:44.599Z,43.58
2019-05-09T16:58:18.885Z,45.35
2019-05-09T17:00:56.862Z,45.88
2019-05-09T17:03:31.419Z,48.55
2019-05-09T17:06:07.664Z,47.90
2019-05-09T17:08:47.501Z,44.10
2019-05-09T17:11:20.069Z,42.35
2019-05-09T17:13:54.921Z,45.23
2019-05-09T17:16:34.466Z,48.20
2019-05-09T17:19:09.138Z,42.15
2019-05-09T17:21:49.598Z,46.35
2019-05-09T17:24:25.463Z,45.20
2019-05-09T17:27:02.351Z,41.65
2019-05-09T17:29:40.866Z,40.90
2019-05-09T17:32:18.120Z,46.02
2019-05-09T17:34:51.240Z,44.38
2019-05-09T17:37:28.098Z,45.40
2019-05-09T17:40:01.913Z,38.55
2019-05-09T17:42:38.153Z,41.85
2019-05-09T17:45:13.591Z,44.55
2019-05-09T17:47:50.395Z,39.70
2019-05-09T17:50:28.346Z,40.92
2019-05-09T17:53:02.839Z,39.92
2019-05-09T17:55:38.106Z,40.40
2019-05-09T17:58:27.180Z,41.83
2019-05-09T18:00:50.826Z,39.55
2019-05-09T18:03:25.333Z,38.33
2019-05-09T18:05:59.748Z,40.67
2019-05-09T18:08:34.300Z,38.42
2019-05-09T18:11:09.966Z,36.95
2019-05-09T18:13:44.887Z,38.63
2019-05-09T18:16:19.387Z,42.15
2019-05-09T18:18:55.845Z,38.48
2019-05-09T18:21:30.395Z,41.98
2019-05-09T18:24:05.020Z,45.33
2019-05-09T18:26:39.611Z,39.13
2019-05-09T18:29:15.245Z,37.88
2019-05-09T18:31:51.204Z,40.35
2019-05-09T18:34:25.884Z,38.33
2019-05-09T18:37:00.553Z,41.65
2019-05-09T18:39:34.548Z,41.35
2019-05-09T18:42:10.183Z,41.40
2019-05-09T18:44:44.369Z,36.73
2019-05-09T18:47:18.808Z,38.15
2019-05-09T18:50:05.156Z,37.38
2019-05-09T18:52:39.667Z,40.03
2019-05-09T18:55:14.341Z,35.92
2019-05-09T18:57:48.571Z,38.50
2019-05-09T19:00:24.165Z,39.18
2019-05-09T19:02:58.314Z,39.63
2019-05-09T19:05:32.739Z,39.30
2019-05-09T19:08:08.133Z,41.18
2019-05-09T19:10:42.247Z,35.68
2019-05-09T19:13:16.483Z,43.75
2019-05-09T19:15:53.129Z,41.75
2019-05-09T19:18:35.829Z,39.78
2019-05-09T19:21:11.335Z,37.83
2019-05-09T19:23:48.360Z,37.20
2019-05-09T19:26:38.338Z,38.45
2019-05-09T19:29:15.455Z,37.45
2019-05-09T19:31:50.380Z,38.65
2019-05-09T19:34:25.717Z,37.98
2019-05-09T19:37:02.358Z,37.50
2019-05-09T19:39:37.982Z,36.85
2019-05-09T19:42:13.716Z,42.60
2019-05-09T19:44:48.039Z,37.95
2019-05-09T19:47:23.414Z,41.15
2019-05-09T19:49:58.753Z,39.70
2019-05-09T19:52:38.387Z,40.60
2019-05-09T19:55:09.131Z,36.58
2019-05-09T19:57:43.513Z,40.30
2019-05-09T20:00:18.501Z,33.88
2019-05-09T20:02:52.891Z,36.05
2019-05-09T20:05:27.249Z,39.18
2019-05-09T20:08:02.617Z,35.63
2019-05-09T20:10:57.190Z,39.10
2019-05-09T20:16:12.020Z,39.23
2019-05-09T20:18:46.547Z,36.05
2019-05-09T20:21:21.169Z,38.48
2019-05-09T20:23:55.597Z,36.93
2019-05-09T20:26:30.335Z,41.33
2019-05-09T20:29:05.795Z,36.68
2019-05-09T20:31:40.606Z,31.52
2019-05-09T20:34:15.129Z,33.55
2019-05-09T20:36:49.492Z,40.05
2019-05-09T20:39:24.062Z,39.20
2019-05-09T20:41:58.590Z,38.45
2019-05-09T20:44:32.996Z,34.80
2019-05-09T20:47:07.551Z,43.15
2019-05-09T20:49:42.126Z,34.33
2019-05-09T20:52:16.628Z,39.30
2019-05-09T20:54:51.211Z,36.70
2019-05-09T20:57:26.021Z,38.67
2019-05-09T21:00:00.642Z,39.23
2019-05-09T21:02:36.348Z,48.75
2019-05-09T21:05:10.804Z,53.35
2019-05-09T21:07:45.478Z,52.30
2019-05-09T21:10:19.920Z,51.63
2019-05-09T21:12:54.110Z,52.67
2019-05-09T21:15:28.567Z,52.30
2019-05-09T21:18:03.445Z,49.80
2019-05-09T21:20:37.894Z,47.43
2019-05-09T21:23:23.750Z,50.08
2019-05-09T21:25:48.191Z,50.43
2019-05-09T21:28:22.642Z,45.33
2019-05-09T21:30:57.563Z,46.45
2019-05-09T21:33:32.234Z,40.73
2019-05-09T21:36:06.687Z,43.85
2019-05-09T21:38:40.950Z,42.60
2019-05-09T21:41:15.248Z,42.98
2019-05-09T21:43:49.877Z,43.45
2019-05-09T21:46:24.051Z,41.63
2019-05-09T21:48:59.356Z,41.92
2019-05-09T21:51:33.627Z,42.75
2019-05-09T21:54:07.965Z,37.60
2019-05-09T21:56:42.245Z,40.55
2019-05-09T21:59:16.682Z,39.27
2019-05-09T22:01:51.432Z,37.38
2019-05-09T22:04:25.726Z,39.05
2019-05-09T22:07:00.115Z,41.15
2019-05-09T22:09:34.425Z,41.05
2019-05-09T22:12:08.798Z,40.75
2019-05-09T22:14:43.188Z,41.48
2019-05-09T22:17:35.237Z,45.40
2019-05-09T22:20:11.303Z,47.35
2019-05-09T22:22:46.623Z,42.75
2019-05-09T22:25:21.201Z,37.25
2019-05-09T22:27:55.573Z,41.25
2019-05-09T22:30:50.510Z,41.55
2019-05-09T22:33:24.823Z,44.65
2019-05-09T22:36:00.012Z,39.65
2019-05-09T22:38:34.310Z,43.30
2019-05-09T22:41:09.653Z,55.50
2019-05-09T22:43:43.978Z,49.60
2019-05-09T22:46:18.414Z,40.88
2019-05-09T22:48:52.682Z,45.63
2019-05-09T22:51:26.943Z,41.05
2019-05-09T22:54:12.135Z,44.35
2019-05-09T22:56:37.598Z,44.85
2019-05-09T22:59:11.811Z,47.88
2019-05-09T23:01:57.547Z,73.50
2019-05-09T23:04:33.432Z,50.43
2019-05-09T23:07:14.209Z,41.30
2019-05-09T23:09:48.473Z,40.25
2019-05-09T23:12:23.814Z,42.50
2019-05-09T23:14:58.083Z,40.90
2019-05-09T23:17:32.431Z,41.37
2019-05-09T23:20:12.604Z,47.83
2019-05-09T23:22:46.903Z,41.08
2019-05-09T23:25:21.247Z,49.53
2019-05-09T23:27:55.560Z,46.90
2019-05-09T23:30:30.917Z,49.15
2019-05-09T23:33:05.390Z,52.88
2019-05-09T23:35:40.556Z,52.33
2019-05-09T23:38:14.766Z,52.20
2019-05-09T23:40:48.951Z,61.05
2019-05-09T23:43:23.224Z,62.53
2019-05-09T23:45:58.666Z,62.80
2019-05-09T23:48:33.028Z,70.00
2019-05-09T23:51:07.242Z,86.10
2019-05-09T23:53:42.758Z,81.28
2019-05-09T23:56:34.950Z,99.80
2019-05-09T23:59:26.451Z,129.27
